createdAt,value
2018-01-19T04:37:13.678Z,4.50
2018-01-19T04:39:46.326Z,4.50
2018-01-19T04:42:18.199Z,4.40
2018-01-19T04:44:50.078Z,4.40
2018-01-19T04:47:22.709Z,4.40
2018-01-19T04:49:54.589Z,4.40
2018-01-19T04:52:26.462Z,4.40
2018-01-19T04:54:59.110Z,4.30
2018-01-19T04:57:30.986Z,4.30
2018-01-19T05:00:02.932Z,4.30
2018-01-19T05:02:34.799Z,4.30
2018-01-19T05:05:07.474Z,4.30
2018-01-19T05:07:39.343Z,4.30
2018-01-19T05:10:11.228Z,4.30
2018-01-19T05:12:43.870Z,4.30
2018-01-19T05:15:15.755Z,4.30
2018-01-19T05:17:47.636Z,4.30
2018-01-19T05:20:20.290Z,4.30
2018-01-19T05:22:53.666Z,4.30
2018-01-19T05:25:25.547Z,4.30
2018-01-19T05:27:57.420Z,4.40
2018-01-19T05:30:30.084Z,4.50
2018-01-19T05:33:01.949Z,4.40
2018-01-19T05:35:34.602Z,4.50
2018-01-19T05:38:06.478Z,4.50
2018-01-19T05:40:38.358Z,4.50
2018-01-19T05:43:11.004Z,4.50
2018-01-19T05:45:43.119Z,4.50
2018-01-19T05:48:14.996Z,4.50
2018-01-19T05:50:46.878Z,4.60
2018-01-19T05:53:18.775Z,4.60
2018-01-19T05:55:51.430Z,4.60
2018-01-19T05:58:24.046Z,4.60
2018-01-19T06:00:55.983Z,4.60
2018-01-19T06:03:27.854Z,4.60
2018-01-19T06:06:00.499Z,4.60
2018-01-19T06:08:32.371Z,4.60
2018-01-19T06:11:04.260Z,4.60
2018-01-19T06:13:36.926Z,4.60
2018-01-19T06:16:08.777Z,4.60
2018-01-19T06:18:40.642Z,4.70
2018-01-19T06:21:12.528Z,4.70
2018-01-19T06:23:44.435Z,4.70
2018-01-19T06:26:16.301Z,4.70
2018-01-19T06:28:48.182Z,4.60
2018-01-19T06:31:20.063Z,4.70
2018-01-19T06:33:52.695Z,4.70
2018-01-19T06:36:24.578Z,4.70
2018-01-19T06:38:56.447Z,4.70
2018-01-19T06:41:29.106Z,4.70
2018-01-19T06:44:00.971Z,4.60
2018-01-19T06:46:32.878Z,4.70
2018-01-19T06:49:04.746Z,4.70
2018-01-19T06:51:36.626Z,4.70
2018-01-19T06:54:08.492Z,4.70
2018-01-19T06:56:40.374Z,4.70
2018-01-19T06:59:12.242Z,4.70
2018-01-19T07:01:44.897Z,4.80
2018-01-19T07:04:16.766Z,4.80
2018-01-19T07:06:48.645Z,4.80
2018-01-19T07:09:21.275Z,4.70
2018-01-19T07:11:53.153Z,4.70
2018-01-19T07:14:25.059Z,4.70
2018-01-19T07:16:56.930Z,4.70
2018-01-19T07:19:28.809Z,4.80
2018-01-19T07:22:00.693Z,4.80
2018-01-19T07:24:32.690Z,4.80
2018-01-19T07:27:05.332Z,4.70
2018-01-19T07:29:37.198Z,4.70
2018-01-19T07:32:09.082Z,4.70
2018-01-19T07:34:41.732Z,4.70
2018-01-19T07:37:13.603Z,4.70
2018-01-19T07:39:45.471Z,4.70
2018-01-19T07:42:17.360Z,4.70
2018-01-19T07:44:49.231Z,4.80
2018-01-19T07:47:21.109Z,4.80
2018-01-19T07:49:52.980Z,4.80
2018-01-19T07:52:24.868Z,4.80
2018-01-19T07:54:56.733Z,4.70
2018-01-19T07:57:29.381Z,4.70
2018-01-19T08:00:01.267Z,4.70
2018-01-19T08:02:33.175Z,4.70
2018-01-19T08:05:05.046Z,4.70
2018-01-19T08:07:36.933Z,4.70
2018-01-19T08:10:08.806Z,4.80
2018-01-19T08:12:40.689Z,4.80
2018-01-19T08:15:13.322Z,4.80
2018-01-19T08:17:45.210Z,4.80
2018-01-19T08:20:17.078Z,4.80
2018-01-19T08:22:49.726Z,4.90
2018-01-19T08:25:21.587Z,4.80
2018-01-19T08:27:53.514Z,4.90
2018-01-19T08:30:25.386Z,4.90
2018-01-19T08:32:57.267Z,4.90
2018-01-19T08:35:29.130Z,5.00
2018-01-19T08:38:01.018Z,5.00
2018-01-19T08:40:34.735Z,5.20
2018-01-19T08:43:07.366Z,5.20
2018-01-19T08:45:39.239Z,5.20
2018-01-19T08:48:11.116Z,5.30
2018-01-19T08:50:43.753Z,5.40
2018-01-19T08:53:15.627Z,5.40
2018-01-19T08:55:47.489Z,5.50
2018-01-19T08:58:19.374Z,5.50
2018-01-19T09:00:52.020Z,5.60
2018-01-19T09:03:23.901Z,5.50
2018-01-19T09:05:55.770Z,5.70
2018-01-19T09:08:28.409Z,5.90
2018-01-19T09:11:00.282Z,5.90
2018-01-19T09:13:32.170Z,6.00
2018-01-19T09:16:04.801Z,6.20
2018-01-19T09:18:36.686Z,6.20
2018-01-19T09:21:08.552Z,6.20
2018-01-19T09:23:40.432Z,6.20
2018-01-19T09:26:13.066Z,6.20
2018-01-19T09:28:44.947Z,6.20
2018-01-19T09:33:55.126Z,6.20
2018-01-19T09:36:27.757Z,6.00
2018-01-19T09:38:59.630Z,6.00
2018-01-19T09:41:31.506Z,6.00
2018-01-19T09:44:03.382Z,5.90
2018-01-19T09:46:36.018Z,6.00
2018-01-19T09:49:07.910Z,6.00
2018-01-19T09:51:39.774Z,6.00
2018-01-19T09:54:11.647Z,6.10
2018-01-19T09:56:44.286Z,6.40
2018-01-19T09:59:16.165Z,6.30
2018-01-19T10:01:48.039Z,6.40
2018-01-19T10:04:19.921Z,6.50
2018-01-19T10:06:51.791Z,6.50
2018-01-19T10:09:23.678Z,6.50
2018-01-19T10:11:55.555Z,6.50
2018-01-19T10:14:27.431Z,6.50
2018-01-19T10:16:59.294Z,6.40
2018-01-19T10:19:31.176Z,6.40
2018-01-19T10:22:03.055Z,6.40
2018-01-19T10:24:34.930Z,6.50
2018-01-19T10:27:06.795Z,6.50
2018-01-19T10:29:38.684Z,6.50
2018-01-19T10:32:10.557Z,6.60
2018-01-19T10:34:42.445Z,6.60
2018-01-19T10:37:14.321Z,6.60
2018-01-19T10:39:46.206Z,6.60
2018-01-19T10:42:18.078Z,6.50
2018-01-19T10:44:49.966Z,6.50
2018-01-19T10:47:22.606Z,6.60
2018-01-19T10:49:54.496Z,6.60
2018-01-19T10:52:27.136Z,6.80
2018-01-19T10:54:59.056Z,6.80
2018-01-19T10:57:30.954Z,6.90
2018-01-19T11:00:02.824Z,7.00
2018-01-19T11:02:34.698Z,7.10
2018-01-19T11:05:06.570Z,7.00
2018-01-19T11:07:38.443Z,7.10
2018-01-19T11:10:11.084Z,7.10
2018-01-19T11:12:42.950Z,7.10
2018-01-19T11:15:14.830Z,7.20
2018-01-19T11:17:46.690Z,7.20
2018-01-19T11:20:19.334Z,7.30
2018-01-19T11:22:51.203Z,7.30
2018-01-19T11:25:23.078Z,7.30
2018-01-19T11:27:54.950Z,7.30
2018-01-19T11:30:27.599Z,7.40
2018-01-19T11:32:59.468Z,7.30
2018-01-19T11:35:31.347Z,7.40
2018-01-19T11:38:03.202Z,7.50
2018-01-19T11:40:35.130Z,7.60
2018-01-19T11:43:06.999Z,7.60
2018-01-19T11:45:38.879Z,7.60
2018-01-19T11:48:10.750Z,7.70
2018-01-19T11:50:42.635Z,7.70
2018-01-19T11:53:14.492Z,7.70
2018-01-19T11:55:46.366Z,7.70
2018-01-19T11:58:18.218Z,7.70
2018-01-19T12:00:50.095Z,7.70
2018-01-19T12:03:21.963Z,7.70
2018-01-19T12:05:53.842Z,7.70
2018-01-19T12:08:25.721Z,7.80
2018-01-19T12:10:57.588Z,7.80
2018-01-19T12:13:30.222Z,7.70
2018-01-19T12:16:02.091Z,7.70
2018-01-19T12:18:34.738Z,7.60
2018-01-19T12:21:06.614Z,7.50
2018-01-19T12:23:38.478Z,7.50
2018-01-19T12:26:10.359Z,7.40
2018-01-19T12:28:42.227Z,7.40
2018-01-19T12:31:14.106Z,7.30
2018-01-19T12:33:46.734Z,7.20
2018-01-19T12:36:18.622Z,7.20
2018-01-19T12:38:50.494Z,7.20
2018-01-19T12:41:22.378Z,7.10
2018-01-19T12:43:54.999Z,7.10
2018-01-19T12:46:27.718Z,7.10
2018-01-19T12:49:00.349Z,7.20
2018-01-19T12:51:32.280Z,7.10
2018-01-19T12:54:04.147Z,7.20
2018-01-19T12:56:36.014Z,7.20
2018-01-19T12:59:07.874Z,7.30
2018-01-19T13:01:39.751Z,7.30
2018-01-19T13:04:11.610Z,7.40
2018-01-19T13:06:43.501Z,7.30
2018-01-19T13:09:15.380Z,7.20
2018-01-19T13:11:48.056Z,6.90
2018-01-19T13:14:19.914Z,6.90
2018-01-19T13:16:52.562Z,6.70
2018-01-19T13:19:24.435Z,6.70
2018-01-19T13:21:56.323Z,6.60
2018-01-19T13:24:28.190Z,6.50
2018-01-19T13:27:00.108Z,6.50
2018-01-19T13:29:32.041Z,6.50
2018-01-19T13:32:03.918Z,6.60
2018-01-19T13:34:36.258Z,6.70
2018-01-19T13:37:08.134Z,6.70
2018-01-19T13:39:40.005Z,6.80
2018-01-19T13:42:11.883Z,6.80
2018-01-19T13:44:43.753Z,6.70
2018-01-19T13:47:15.636Z,6.70
2018-01-19T13:49:47.507Z,6.70
2018-01-19T13:52:19.387Z,6.70
2018-01-19T13:54:51.262Z,6.70
2018-01-19T13:57:23.134Z,6.70
2018-01-19T13:59:55.006Z,6.80
2018-01-19T14:02:26.890Z,6.80
2018-01-19T14:04:58.764Z,6.90
2018-01-19T14:07:30.650Z,6.90
2018-01-19T14:10:02.527Z,6.90
2018-01-19T14:12:34.400Z,6.90
2018-01-19T14:15:06.271Z,7.00
2018-01-19T14:17:38.195Z,7.10
2018-01-19T14:20:10.058Z,7.20
2018-01-19T14:22:41.933Z,7.30
2018-01-19T14:25:14.574Z,7.40
2018-01-19T14:27:46.466Z,7.40
2018-01-19T14:30:18.351Z,7.40
2018-01-19T14:32:50.241Z,7.40
2018-01-19T14:35:22.110Z,7.30
2018-01-19T14:37:53.999Z,7.30
2018-01-19T14:40:25.854Z,7.30
2018-01-19T14:42:57.750Z,7.30
2018-01-19T14:45:29.640Z,7.20
2018-01-19T14:48:01.526Z,7.20
2018-01-19T14:50:33.399Z,7.20
2018-01-19T14:53:05.274Z,7.20
2018-01-19T14:55:37.133Z,7.10
2018-01-19T14:58:09.006Z,7.10
2018-01-19T15:00:40.861Z,7.00
2018-01-19T15:03:12.742Z,6.90
2018-01-19T15:05:45.642Z,6.80
2018-01-19T15:08:17.526Z,6.80
2018-01-19T15:10:49.394Z,6.70
2018-01-19T15:13:21.299Z,6.80
2018-01-19T15:15:53.928Z,6.70
2018-01-19T15:18:25.806Z,6.70
2018-01-19T15:20:57.674Z,6.60
2018-01-19T15:23:29.551Z,6.60
2018-01-19T15:26:01.439Z,6.50
2018-01-19T15:28:33.498Z,6.40
2018-01-19T15:31:05.708Z,6.40
2018-01-19T15:33:38.545Z,6.40
2018-01-19T15:36:10.554Z,6.40
2018-01-19T15:38:42.592Z,6.40
2018-01-19T15:41:14.477Z,6.40
2018-01-19T15:43:46.363Z,6.40
2018-01-19T15:46:18.344Z,6.40
2018-01-19T15:48:51.141Z,6.40
2018-01-19T15:51:23.156Z,6.40
2018-01-19T15:53:55.183Z,6.30
2018-01-19T15:56:27.181Z,6.20
2018-01-19T15:58:59.221Z,6.10
2018-01-19T16:01:31.226Z,6.00
2018-01-19T16:04:03.257Z,6.00
2018-01-19T16:06:35.260Z,5.90
2018-01-19T16:09:08.064Z,5.80
2018-01-19T16:11:40.064Z,5.80
2018-01-19T16:14:12.127Z,5.70
2018-01-19T16:16:44.052Z,5.70
2018-01-19T16:19:16.691Z,5.70
2018-01-19T16:21:48.562Z,5.60
2018-01-19T16:24:20.443Z,5.70
2018-01-19T16:26:53.358Z,5.70
2018-01-19T16:29:25.242Z,5.70
2018-01-19T16:31:57.155Z,5.70
2018-01-19T16:34:29.792Z,5.60
2018-01-19T16:37:01.658Z,5.60
2018-01-19T16:39:33.559Z,5.60
2018-01-19T16:42:05.422Z,5.50
2018-01-19T16:44:37.299Z,5.50
2018-01-19T16:47:09.194Z,5.50
2018-01-19T16:49:41.062Z,5.50
2018-01-19T16:52:12.959Z,5.40
2018-01-19T16:54:44.841Z,5.40
2018-01-19T16:57:16.727Z,5.50
2018-01-19T16:59:48.607Z,5.40
2018-01-19T17:02:20.466Z,5.50
2018-01-19T17:04:52.357Z,5.40
2018-01-19T17:07:24.991Z,5.40
2018-01-19T17:09:56.894Z,5.40
2018-01-19T17:12:28.774Z,5.40
2018-01-19T17:15:00.646Z,5.40
2018-01-19T17:17:32.520Z,5.30
2018-01-19T17:20:04.444Z,5.30
2018-01-19T17:22:36.278Z,5.30
2018-01-19T17:25:08.926Z,5.10
2018-01-19T17:27:40.792Z,5.10
2018-01-19T17:30:12.678Z,5.10
2018-01-19T17:32:45.310Z,5.00
2018-01-19T17:35:17.191Z,5.00
2018-01-19T17:37:49.054Z,4.90
2018-01-19T17:40:20.939Z,4.90
2018-01-19T17:42:53.585Z,4.80
2018-01-19T17:45:25.487Z,4.70
2018-01-19T17:47:58.130Z,4.70
2018-01-19T17:50:30.012Z,4.70
2018-01-19T17:53:01.883Z,4.70
2018-01-19T17:55:34.050Z,4.60
2018-01-19T17:58:05.922Z,4.60
2018-01-19T18:00:37.798Z,4.60
2018-01-19T18:03:09.667Z,4.50
2018-01-19T18:05:41.539Z,4.50
2018-01-19T18:08:13.402Z,4.60
2018-01-19T18:10:45.286Z,4.60
2018-01-19T18:13:17.147Z,4.60
2018-01-19T18:15:49.041Z,4.50
2018-01-19T18:18:20.905Z,4.50
2018-01-19T18:20:52.795Z,4.50
2018-01-19T18:23:24.694Z,4.50
2018-01-19T18:25:56.563Z,4.40
2018-01-19T18:28:29.236Z,4.40
2018-01-19T18:31:01.881Z,4.30
2018-01-19T18:33:33.778Z,4.30
2018-01-19T18:36:05.650Z,4.30
2018-01-19T18:38:37.538Z,4.30
2018-01-19T18:41:09.410Z,4.40
2018-01-19T18:43:41.282Z,4.30
2018-01-19T18:46:13.158Z,4.30
2018-01-19T18:48:45.018Z,4.30
2018-01-19T18:51:16.895Z,4.30
2018-01-19T18:53:48.759Z,4.40
2018-01-19T18:56:21.407Z,4.30
2018-01-19T18:58:53.275Z,4.40
2018-01-19T19:01:25.150Z,4.30
2018-01-19T19:03:57.023Z,4.30
2018-01-19T19:06:29.712Z,4.40
2018-01-19T19:09:01.577Z,4.30
2018-01-19T19:11:33.460Z,4.30
2018-01-19T19:14:05.315Z,4.30
2018-01-19T19:16:37.228Z,4.30
2018-01-19T19:19:09.876Z,4.30
2018-01-19T19:21:41.758Z,4.30
2018-01-19T19:24:14.397Z,4.30
2018-01-19T19:26:46.292Z,4.30
2018-01-19T19:29:18.940Z,4.20
2018-01-19T19:31:50.818Z,4.20
2018-01-19T19:34:22.677Z,4.10
2018-01-19T19:36:54.554Z,4.10
2018-01-19T19:39:27.200Z,4.10
2018-01-19T19:41:59.075Z,4.10
2018-01-19T19:44:30.949Z,4.20
2018-01-19T19:47:02.832Z,4.20
2018-01-19T19:49:35.210Z,4.20
2018-01-19T19:52:07.093Z,4.20
2018-01-19T19:54:38.959Z,4.20
2018-01-19T19:57:10.846Z,4.20
2018-01-19T19:59:42.726Z,4.20
2018-01-19T20:02:15.370Z,4.20
2018-01-19T20:04:48.025Z,4.20
2018-01-19T20:07:19.899Z,4.20
2018-01-19T20:09:51.774Z,4.20
2018-01-19T20:12:24.204Z,4.20
2018-01-19T20:14:56.062Z,4.10
2018-01-19T20:17:27.957Z,4.00
2018-01-19T20:19:59.814Z,4.00
2018-01-19T20:22:31.718Z,3.90
2018-01-19T20:25:03.576Z,3.90
2018-01-19T20:27:36.214Z,3.90
2018-01-19T20:30:08.087Z,3.80
2018-01-19T20:32:39.958Z,3.80
2018-01-19T20:35:11.828Z,3.80
2018-01-19T20:37:44.482Z,3.80
2018-01-19T20:40:16.354Z,3.80
2018-01-19T20:42:48.232Z,3.80
2018-01-19T20:45:20.102Z,3.90
2018-01-19T20:47:52.751Z,3.90
2018-01-19T20:50:24.623Z,3.90
2018-01-19T20:52:56.507Z,3.90
2018-01-19T20:55:28.376Z,3.90
2018-01-19T20:58:00.258Z,3.90
2018-01-19T21:00:32.139Z,3.90
2018-01-19T21:03:04.026Z,3.90
2018-01-19T21:05:35.889Z,3.90
2018-01-19T21:08:07.765Z,4.00
2018-01-19T21:10:39.658Z,3.90
2018-01-19T21:13:11.537Z,4.00
2018-01-19T21:15:43.406Z,4.00
2018-01-19T21:18:15.291Z,4.00
